sensor_id;sensor_type;location;lat;lon;timestamp;temperature;humidity
26081;DHT22;13991;51.174;4.438;2022-10-17T00:01:03;16.70;99.90
26081;DHT22;13991;51.174;4.438;2022-10-17T00:03:29;16.80;99.90
26081;DHT22;13991;51.174;4.438;2022-10-17T00:05:54;16.70;99.90
26081;DHT22;13991;51.174;4.438;2022-10-17T00:08:20;16.70;99.90
26081;DHT22;13991;51.174;4.438;2022-10-17T00:11:01;16.80;99.90
26081;DHT22;13991;51.174;4.438;2022-10-17T00:13:27;16.80;99.90
26081;DHT22;13991;51.174;4.438;2022-10-17T00:15:53;16.70;99.90
26081;DHT22;13991;51.174;4.438;2022-10-17T00:18:19;16.70;99.90
26081;DHT22;13991;51.174;4.438;2022-10-17T00:20:45;16.70;99.90
26081;DHT22;13991;51.174;4.438;2022-10-17T00:23:10;16.70;99.90
26081;DHT22;13991;51.174;4.438;2022-10-17T00:25:36;16.70;99.90
26081;DHT22;13991;51.174;4.438;2022-10-17T00:28:02;16.70;99.90
26081;DHT22;13991;51.174;4.438;2022-10-17T00:30:28;16.70;99.90
26081;DHT22;13991;51.174;4.438;2022-10-17T00:32:54;16.60;99.90
26081;DHT22;13991;51.174;4.438;2022-10-17T00:35:20;16.70;99.90
26081;DHT22;13991;51.174;4.438;2022-10-17T00:37:45;16.70;99.90
26081;DHT22;13991;51.174;4.438;2022-10-17T00:40:11;16.60;99.90
26081;DHT22;13991;51.174;4.438;2022-10-17T00:42:37;16.70;99.90
26081;DHT22;13991;51.174;4.438;2022-10-17T00:45:16;16.70;99.90
26081;DHT22;13991;51.174;4.438;2022-10-17T00:47:46;16.70;99.90
26081;DHT22;13991;51.174;4.438;2022-10-17T00:50:12;16.70;99.90
26081;DHT22;13991;51.174;4.438;2022-10-17T00:52:39;16.70;99.90
26081;DHT22;13991;51.174;4.438;2022-10-17T00:55:10;16.60;99.90
26081;DHT22;13991;51.174;4.438;2022-10-17T00:57:37;16.60;99.90
26081;DHT22;13991;51.174;4.438;2022-10-17T01:00:06;16.60;99.90
26081;DHT22;13991;51.174;4.438;2022-10-17T01:02:32;16.60;99.90
26081;DHT22;13991;51.174;4.438;2022-10-17T01:04:57;16.50;99.90
26081;DHT22;13991;51.174;4.438;2022-10-17T01:07:24;16.60;99.90
26081;DHT22;13991;51.174;4.438;2022-10-17T01:09:51;16.70;99.90
26081;DHT22;13991;51.174;4.438;2022-10-17T01:12:24;16.60;99.90
26081;DHT22;13991;51.174;4.438;2022-10-17T01:15:28;16.60;99.90
26081;DHT22;13991;51.174;4.438;2022-10-17T01:27:11;16.50;99.90
26081;DHT22;13991;51.174;4.438;2022-10-17T01:32:46;16.60;99.90
26081;DHT22;13991;51.174;4.438;2022-10-17T01:35:24;16.70;99.90
26081;DHT22;13991;51.174;4.438;2022-10-17T01:38:05;16.60;99.90
26081;DHT22;13991;51.174;4.438;2022-10-17T01:41:01;16.70;99.90
26081;DHT22;13991;51.174;4.438;2022-10-17T01:43:45;16.60;99.90
26081;DHT22;13991;51.174;4.438;2022-10-17T01:48:52;16.70;99.90
26081;DHT22;13991;51.174;4.438;2022-10-17T01:51:47;16.60;99.90
26081;DHT22;13991;51.174;4.438;2022-10-17T01:56:41;16.70;99.90
26081;DHT22;13991;51.174;4.438;2022-10-17T01:59:19;16.70;99.90
26081;DHT22;13991;51.174;4.438;2022-10-17T02:01:48;16.70;99.90
26081;DHT22;13991;51.174;4.438;2022-10-17T02:04:15;16.70;99.90
26081;DHT22;13991;51.174;4.438;2022-10-17T02:06:41;16.70;99.90
26081;DHT22;13991;51.174;4.438;2022-10-17T02:09:23;16.70;99.90
26081;DHT22;13991;51.174;4.438;2022-10-17T02:22:47;16.70;99.90
26081;DHT22;13991;51.174;4.438;2022-10-17T02:30:36;16.70;99.90
26081;DHT22;13991;51.174;4.438;2022-10-17T02:35:38;16.70;99.90
26081;DHT22;13991;51.174;4.438;2022-10-17T02:38:07;16.70;99.90
26081;DHT22;13991;51.174;4.438;2022-10-17T02:40:35;16.70;99.90
26081;DHT22;13991;51.174;4.438;2022-10-17T02:43:01;16.70;99.90
26081;DHT22;13991;51.174;4.438;2022-10-17T02:45:28;16.70;99.90
26081;DHT22;13991;51.174;4.438;2022-10-17T02:47:58;16.70;99.90
26081;DHT22;13991;51.174;4.438;2022-10-17T02:50:56;16.80;99.90
26081;DHT22;13991;51.174;4.438;2022-10-17T02:53:27;16.70;99.90
26081;DHT22;13991;51.174;4.438;2022-10-17T02:55:58;16.70;99.90
26081;DHT22;13991;51.174;4.438;2022-10-17T02:58:29;16.80;99.90
26081;DHT22;13991;51.174;4.438;2022-10-17T03:00:56;16.80;99.90
26081;DHT22;13991;51.174;4.438;2022-10-17T03:03:28;16.80;99.90
26081;DHT22;13991;51.174;4.438;2022-10-17T03:05:54;16.80;99.90
26081;DHT22;13991;51.174;4.438;2022-10-17T03:08:20;16.70;99.90
26081;DHT22;13991;51.174;4.438;2022-10-17T03:10:47;16.70;99.90
26081;DHT22;13991;51.174;4.438;2022-10-17T03:13:13;16.70;99.90
26081;DHT22;13991;51.174;4.438;2022-10-17T03:18:07;16.80;99.90
26081;DHT22;13991;51.174;4.438;2022-10-17T03:20:32;16.80;99.90
26081;DHT22;13991;51.174;4.438;2022-10-17T03:22:58;16.80;99.90
26081;DHT22;13991;51.174;4.438;2022-10-17T03:25:24;16.90;99.90
26081;DHT22;13991;51.174;4.438;2022-10-17T03:27:50;16.90;99.90
26081;DHT22;13991;51.174;4.438;2022-10-17T03:30:17;16.90;99.90
26081;DHT22;13991;51.174;4.438;2022-10-17T03:32:43;16.90;99.90
26081;DHT22;13991;51.174;4.438;2022-10-17T03:35:08;16.90;99.90
26081;DHT22;13991;51.174;4.438;2022-10-17T03:37:34;16.90;99.90
26081;DHT22;13991;51.174;4.438;2022-10-17T03:40:00;16.90;99.90
26081;DHT22;13991;51.174;4.438;2022-10-17T03:42:25;16.90;99.90
26081;DHT22;13991;51.174;4.438;2022-10-17T03:44:51;16.90;99.90
26081;DHT22;13991;51.174;4.438;2022-10-17T03:47:17;16.90;99.90
26081;DHT22;13991;51.174;4.438;2022-10-17T03:49:42;16.90;99.90
26081;DHT22;13991;51.174;4.438;2022-10-17T03:52:14;16.90;99.90
26081;DHT22;13991;51.174;4.438;2022-10-17T03:54:40;16.90;99.90
26081;DHT22;13991;51.174;4.438;2022-10-17T03:57:06;16.90;99.90
26081;DHT22;13991;51.174;4.438;2022-10-17T03:59:31;17.00;99.90
26081;DHT22;13991;51.174;4.438;2022-10-17T04:01:57;17.00;99.90
26081;DHT22;13991;51.174;4.438;2022-10-17T04:04:23;17.00;99.90
26081;DHT22;13991;51.174;4.438;2022-10-17T04:06:48;17.10;99.90
26081;DHT22;13991;51.174;4.438;2022-10-17T04:09:14;17.10;99.90
26081;DHT22;13991;51.174;4.438;2022-10-17T04:11:40;17.20;99.90
26081;DHT22;13991;51.174;4.438;2022-10-17T04:14:05;17.20;99.90
26081;DHT22;13991;51.174;4.438;2022-10-17T04:16:31;17.20;99.90
26081;DHT22;13991;51.174;4.438;2022-10-17T04:18:58;17.20;99.90
26081;DHT22;13991;51.174;4.438;2022-10-17T04:21:25;17.30;99.90
26081;DHT22;13991;51.174;4.438;2022-10-17T04:23:56;17.30;99.90
26081;DHT22;13991;51.174;4.438;2022-10-17T04:26:22;17.30;99.90
26081;DHT22;13991;51.174;4.438;2022-10-17T04:28:48;17.40;99.90
26081;DHT22;13991;51.174;4.438;2022-10-17T04:31:15;17.40;99.90
26081;DHT22;13991;51.174;4.438;2022-10-17T04:33:41;17.40;99.90
26081;DHT22;13991;51.174;4.438;2022-10-17T04:36:10;17.40;99.90
26081;DHT22;13991;51.174;4.438;2022-10-17T04:38:37;17.50;99.90
26081;DHT22;13991;51.174;4.438;2022-10-17T04:41:05;17.50;99.90
26081;DHT22;13991;51.174;4.438;2022-10-17T04:43:33;17.50;99.90
26081;DHT22;13991;51.174;4.438;2022-10-17T04:46:02;17.60;99.90
26081;DHT22;13991;51.174;4.438;2022-10-17T04:48:28;17.60;99.90
26081;DHT22;13991;51.174;4.438;2022-10-17T04:50:55;17.60;99.90
26081;DHT22;13991;51.174;4.438;2022-10-17T04:53:22;17.50;99.90
26081;DHT22;13991;51.174;4.438;2022-10-17T04:55:48;17.50;99.90
26081;DHT22;13991;51.174;4.438;2022-10-17T04:58:14;17.50;99.90
26081;DHT22;13991;51.174;4.438;2022-10-17T05:00:40;17.50;99.90
26081;DHT22;13991;51.174;4.438;2022-10-17T05:03:06;17.50;99.90
26081;DHT22;13991;51.174;4.438;2022-10-17T05:05:32;17.60;99.90
26081;DHT22;13991;51.174;4.438;2022-10-17T05:07:57;17.60;99.90
26081;DHT22;13991;51.174;4.438;2022-10-17T05:10:23;17.60;99.90
26081;DHT22;13991;51.174;4.438;2022-10-17T05:12:49;17.60;99.90
26081;DHT22;13991;51.174;4.438;2022-10-17T05:15:16;17.60;99.90
26081;DHT22;13991;51.174;4.438;2022-10-17T05:17:41;17.60;99.90
26081;DHT22;13991;51.174;4.438;2022-10-17T05:20:07;17.60;99.90
26081;DHT22;13991;51.174;4.438;2022-10-17T05:22:33;17.60;99.90
26081;DHT22;13991;51.174;4.438;2022-10-17T05:24:59;17.70;99.90
26081;DHT22;13991;51.174;4.438;2022-10-17T05:27:25;17.60;99.90
26081;DHT22;13991;51.174;4.438;2022-10-17T05:29:50;17.70;99.90
26081;DHT22;13991;51.174;4.438;2022-10-17T05:32:16;17.70;99.90
26081;DHT22;13991;51.174;4.438;2022-10-17T05:34:42;17.70;99.90
26081;DHT22;13991;51.174;4.438;2022-10-17T05:37:07;17.70;99.90
26081;DHT22;13991;51.174;4.438;2022-10-17T05:39:33;17.70;99.90
26081;DHT22;13991;51.174;4.438;2022-10-17T05:41:59;17.70;99.90
26081;DHT22;13991;51.174;4.438;2022-10-17T05:44:25;17.70;99.90
26081;DHT22;13991;51.174;4.438;2022-10-17T05:46:50;17.70;99.90
26081;DHT22;13991;51.174;4.438;2022-10-17T05:49:16;17.70;99.90
26081;DHT22;13991;51.174;4.438;2022-10-17T05:51:42;17.70;99.90
26081;DHT22;13991;51.174;4.438;2022-10-17T05:54:08;17.70;99.90
26081;DHT22;13991;51.174;4.438;2022-10-17T05:56:34;17.80;99.90
26081;DHT22;13991;51.174;4.438;2022-10-17T05:58:59;17.80;99.90
26081;DHT22;13991;51.174;4.438;2022-10-17T06:01:25;17.80;99.90
26081;DHT22;13991;51.174;4.438;2022-10-17T06:03:51;17.80;99.90
26081;DHT22;13991;51.174;4.438;2022-10-17T06:06:17;17.80;99.90
26081;DHT22;13991;51.174;4.438;2022-10-17T06:08:43;17.80;99.90
26081;DHT22;13991;51.174;4.438;2022-10-17T06:11:09;17.80;99.90
26081;DHT22;13991;51.174;4.438;2022-10-17T06:13:35;17.90;99.90
26081;DHT22;13991;51.174;4.438;2022-10-17T06:16:01;17.80;99.90
26081;DHT22;13991;51.174;4.438;2022-10-17T06:18:27;17.90;99.90
26081;DHT22;13991;51.174;4.438;2022-10-17T06:20:52;17.90;99.90
26081;DHT22;13991;51.174;4.438;2022-10-17T06:23:18;17.90;99.90
26081;DHT22;13991;51.174;4.438;2022-10-17T06:25:44;17.90;99.90
26081;DHT22;13991;51.174;4.438;2022-10-17T06:28:10;17.90;99.90
26081;DHT22;13991;51.174;4.438;2022-10-17T06:30:39;17.90;99.90
26081;DHT22;13991;51.174;4.438;2022-10-17T06:33:06;18.00;99.90
26081;DHT22;13991;51.174;4.438;2022-10-17T06:35:31;17.90;99.90
26081;DHT22;13991;51.174;4.438;2022-10-17T06:37:57;17.90;99.90
26081;DHT22;13991;51.174;4.438;2022-10-17T06:40:22;17.90;99.90
26081;DHT22;13991;51.174;4.438;2022-10-17T06:42:48;17.90;99.90
26081;DHT22;13991;51.174;4.438;2022-10-17T06:45:14;18.00;99.90
26081;DHT22;13991;51.174;4.438;2022-10-17T06:47:39;18.00;99.90
26081;DHT22;13991;51.174;4.438;2022-10-17T06:50:05;18.00;99.90
26081;DHT22;13991;51.174;4.438;2022-10-17T06:52:31;18.00;99.90
26081;DHT22;13991;51.174;4.438;2022-10-17T06:54:57;18.10;99.90
26081;DHT22;13991;51.174;4.438;2022-10-17T06:57:22;18.10;99.90
26081;DHT22;13991;51.174;4.438;2022-10-17T06:59:48;18.00;99.90
26081;DHT22;13991;51.174;4.438;2022-10-17T07:02:14;18.00;99.90
26081;DHT22;13991;51.174;4.438;2022-10-17T07:04:39;17.80;99.90
26081;DHT22;13991;51.174;4.438;2022-10-17T07:07:05;17.90;99.90
26081;DHT22;13991;51.174;4.438;2022-10-17T07:09:31;17.80;99.90
26081;DHT22;13991;51.174;4.438;2022-10-17T07:11:58;17.80;99.90
26081;DHT22;13991;51.174;4.438;2022-10-17T07:14:23;17.80;99.90
26081;DHT22;13991;51.174;4.438;2022-10-17T07:16:59;17.80;99.90
26081;DHT22;13991;51.174;4.438;2022-10-17T07:19:25;17.90;99.90
26081;DHT22;13991;51.174;4.438;2022-10-17T07:21:52;17.90;99.90
26081;DHT22;13991;51.174;4.438;2022-10-17T07:24:17;17.90;99.90
26081;DHT22;13991;51.174;4.438;2022-10-17T07:26:43;17.90;99.90
26081;DHT22;13991;51.174;4.438;2022-10-17T07:29:09;17.90;99.90
26081;DHT22;13991;51.174;4.438;2022-10-17T07:31:34;18.00;99.90
26081;DHT22;13991;51.174;4.438;2022-10-17T07:34:00;18.00;99.90
26081;DHT22;13991;51.174;4.438;2022-10-17T07:36:26;18.00;99.90
26081;DHT22;13991;51.174;4.438;2022-10-17T07:38:52;18.00;99.90
26081;DHT22;13991;51.174;4.438;2022-10-17T07:41:17;18.20;99.90
26081;DHT22;13991;51.174;4.438;2022-10-17T07:43:44;18.10;99.90
26081;DHT22;13991;51.174;4.438;2022-10-17T07:46:10;18.10;99.90
26081;DHT22;13991;51.174;4.438;2022-10-17T07:48:37;18.00;99.90
26081;DHT22;13991;51.174;4.438;2022-10-17T07:51:05;18.00;99.90
26081;DHT22;13991;51.174;4.438;2022-10-17T07:53:33;17.90;99.90
26081;DHT22;13991;51.174;4.438;2022-10-17T07:56:01;18.00;99.90
26081;DHT22;13991;51.174;4.438;2022-10-17T07:58:27;17.90;99.90
26081;DHT22;13991;51.174;4.438;2022-10-17T08:00:53;17.90;99.90
26081;DHT22;13991;51.174;4.438;2022-10-17T08:03:19;17.90;99.90
26081;DHT22;13991;51.174;4.438;2022-10-17T08:05:45;17.90;99.90
26081;DHT22;13991;51.174;4.438;2022-10-17T08:08:10;17.90;99.90
26081;DHT22;13991;51.174;4.438;2022-10-17T08:10:36;17.90;99.90
26081;DHT22;13991;51.174;4.438;2022-10-17T08:13:02;17.90;99.90
26081;DHT22;13991;51.174;4.438;2022-10-17T08:15:27;18.00;99.90
26081;DHT22;13991;51.174;4.438;2022-10-17T08:17:53;17.90;99.90
26081;DHT22;13991;51.174;4.438;2022-10-17T08:20:20;17.90;99.90
26081;DHT22;13991;51.174;4.438;2022-10-17T08:22:53;17.90;99.90
26081;DHT22;13991;51.174;4.438;2022-10-17T08:25:18;18.00;99.90
26081;DHT22;13991;51.174;4.438;2022-10-17T08:27:44;18.00;99.90
26081;DHT22;13991;51.174;4.438;2022-10-17T08:30:10;18.10;99.90
26081;DHT22;13991;51.174;4.438;2022-10-17T08:32:36;18.00;99.90
26081;DHT22;13991;51.174;4.438;2022-10-17T08:35:01;18.00;99.90
26081;DHT22;13991;51.174;4.438;2022-10-17T08:37:27;18.10;99.90
26081;DHT22;13991;51.174;4.438;2022-10-17T08:39:54;18.00;99.90
26081;DHT22;13991;51.174;4.438;2022-10-17T08:43:00;18.00;99.90
26081;DHT22;13991;51.174;4.438;2022-10-17T08:45:41;18.00;99.90
26081;DHT22;13991;51.174;4.438;2022-10-17T08:48:15;17.90;99.90
26081;DHT22;13991;51.174;4.438;2022-10-17T08:50:48;18.00;99.90
26081;DHT22;13991;51.174;4.438;2022-10-17T08:53:35;18.00;99.90
26081;DHT22;13991;51.174;4.438;2022-10-17T08:56:12;18.00;99.90
26081;DHT22;13991;51.174;4.438;2022-10-17T08:58:38;18.00;99.90
26081;DHT22;13991;51.174;4.438;2022-10-17T09:09:46;18.10;99.90
26081;DHT22;13991;51.174;4.438;2022-10-17T09:12:19;18.10;99.90
26081;DHT22;13991;51.174;4.438;2022-10-17T09:15:25;18.10;99.90
26081;DHT22;13991;51.174;4.438;2022-10-17T09:20:35;18.20;99.90
26081;DHT22;13991;51.174;4.438;2022-10-17T09:23:16;18.30;99.90
26081;DHT22;13991;51.174;4.438;2022-10-17T09:25:55;18.20;99.90
26081;DHT22;13991;51.174;4.438;2022-10-17T09:28:36;18.30;99.90
26081;DHT22;13991;51.174;4.438;2022-10-17T09:31:15;18.30;99.90
26081;DHT22;13991;51.174;4.438;2022-10-17T09:33:45;18.20;99.90
26081;DHT22;13991;51.174;4.438;2022-10-17T09:36:33;18.20;99.90
26081;DHT22;13991;51.174;4.438;2022-10-17T09:39:01;18.30;99.90
26081;DHT22;13991;51.174;4.438;2022-10-17T09:41:36;18.30;99.90
26081;DHT22;13991;51.174;4.438;2022-10-17T09:49:40;18.40;99.90
26081;DHT22;13991;51.174;4.438;2022-10-17T09:54:50;18.40;99.90
26081;DHT22;13991;51.174;4.438;2022-10-17T09:57:18;18.40;99.90
26081;DHT22;13991;51.174;4.438;2022-10-17T09:59:47;18.40;99.90
26081;DHT22;13991;51.174;4.438;2022-10-17T10:02:21;18.40;99.90
26081;DHT22;13991;51.174;4.438;2022-10-17T10:04:55;18.40;99.90
26081;DHT22;13991;51.174;4.438;2022-10-17T10:07:22;18.50;99.90
26081;DHT22;13991;51.174;4.438;2022-10-17T10:09:48;18.50;99.90
26081;DHT22;13991;51.174;4.438;2022-10-17T10:12:21;18.50;99.90
26081;DHT22;13991;51.174;4.438;2022-10-17T10:14:47;18.60;99.90
26081;DHT22;13991;51.174;4.438;2022-10-17T10:19:58;18.60;99.90
26081;DHT22;13991;51.174;4.438;2022-10-17T10:22:24;18.60;99.90
26081;DHT22;13991;51.174;4.438;2022-10-17T10:25:13;18.60;99.90
26081;DHT22;13991;51.174;4.438;2022-10-17T10:27:41;18.60;99.90
26081;DHT22;13991;51.174;4.438;2022-10-17T10:30:17;18.60;99.90
26081;DHT22;13991;51.174;4.438;2022-10-17T10:32:46;18.70;99.90
26081;DHT22;13991;51.174;4.438;2022-10-17T10:37:48;18.70;99.90
26081;DHT22;13991;51.174;4.438;2022-10-17T10:40:18;18.80;99.90
26081;DHT22;13991;51.174;4.438;2022-10-17T10:42:53;18.80;99.90
26081;DHT22;13991;51.174;4.438;2022-10-17T10:45:39;18.70;99.90
26081;DHT22;13991;51.174;4.438;2022-10-17T10:55:53;18.60;99.90
26081;DHT22;13991;51.174;4.438;2022-10-17T11:01:02;18.60;99.90
26081;DHT22;13991;51.174;4.438;2022-10-17T11:03:55;18.50;99.90
26081;DHT22;13991;51.174;4.438;2022-10-17T11:06:26;18.60;99.90
26081;DHT22;13991;51.174;4.438;2022-10-17T11:09:15;18.70;99.90
26081;DHT22;13991;51.174;4.438;2022-10-17T11:14:44;18.90;99.90
26081;DHT22;13991;51.174;4.438;2022-10-17T11:24:57;19.20;99.90
26081;DHT22;13991;51.174;4.438;2022-10-17T11:27:28;19.20;99.90
26081;DHT22;13991;51.174;4.438;2022-10-17T11:29:54;19.20;99.90
26081;DHT22;13991;51.174;4.438;2022-10-17T11:34:53;19.30;99.90
26081;DHT22;13991;51.174;4.438;2022-10-17T11:37:25;19.30;99.90
26081;DHT22;13991;51.174;4.438;2022-10-17T11:39:54;19.20;99.90
26081;DHT22;13991;51.174;4.438;2022-10-17T11:45:21;19.30;99.90
26081;DHT22;13991;51.174;4.438;2022-10-17T11:48:06;19.20;99.90
26081;DHT22;13991;51.174;4.438;2022-10-17T11:50:38;19.20;99.90
26081;DHT22;13991;51.174;4.438;2022-10-17T11:53:50;19.20;99.90
26081;DHT22;13991;51.174;4.438;2022-10-17T11:56:33;19.30;99.90
26081;DHT22;13991;51.174;4.438;2022-10-17T11:59:44;19.30;99.90
26081;DHT22;13991;51.174;4.438;2022-10-17T12:02:31;19.30;99.90
26081;DHT22;13991;51.174;4.438;2022-10-17T12:05:08;19.30;99.90
26081;DHT22;13991;51.174;4.438;2022-10-17T12:07:51;19.30;99.90
26081;DHT22;13991;51.174;4.438;2022-10-17T12:10:28;19.20;99.90
26081;DHT22;13991;51.174;4.438;2022-10-17T12:12:56;19.30;99.90
26081;DHT22;13991;51.174;4.438;2022-10-17T12:15:26;19.30;99.90
26081;DHT22;13991;51.174;4.438;2022-10-17T12:20:55;19.50;99.90
26081;DHT22;13991;51.174;4.438;2022-10-17T12:23:28;19.40;99.90
26081;DHT22;13991;51.174;4.438;2022-10-17T12:25:57;19.40;99.90
26081;DHT22;13991;51.174;4.438;2022-10-17T12:33:48;19.40;99.90
26081;DHT22;13991;51.174;4.438;2022-10-17T12:46:51;19.30;99.90
26081;DHT22;13991;51.174;4.438;2022-10-17T12:54:46;19.40;99.90
26081;DHT22;13991;51.174;4.438;2022-10-17T12:57:40;19.30;99.90
26081;DHT22;13991;51.174;4.438;2022-10-17T13:03:04;19.40;99.90
26081;DHT22;13991;51.174;4.438;2022-10-17T13:05:35;19.50;99.90
26081;DHT22;13991;51.174;4.438;2022-10-17T13:08:04;19.50;99.90
26081;DHT22;13991;51.174;4.438;2022-10-17T13:10:34;19.50;99.90
26081;DHT22;13991;51.174;4.438;2022-10-17T13:13:22;19.60;99.90
26081;DHT22;13991;51.174;4.438;2022-10-17T13:15:50;19.70;99.90
26081;DHT22;13991;51.174;4.438;2022-10-17T13:18:24;19.70;99.90
26081;DHT22;13991;51.174;4.438;2022-10-17T13:23:25;19.70;99.90
26081;DHT22;13991;51.174;4.438;2022-10-17T13:26:06;19.70;99.90
26081;DHT22;13991;51.174;4.438;2022-10-17T13:28:32;19.70;99.90
26081;DHT22;13991;51.174;4.438;2022-10-17T13:30:58;19.80;99.90
26081;DHT22;13991;51.174;4.438;2022-10-17T13:33:31;19.80;99.90
26081;DHT22;13991;51.174;4.438;2022-10-17T13:35:59;19.80;99.90
26081;DHT22;13991;51.174;4.438;2022-10-17T13:38:28;19.90;99.90
26081;DHT22;13991;51.174;4.438;2022-10-17T13:40:54;19.90;99.90
26081;DHT22;13991;51.174;4.438;2022-10-17T13:43:21;19.90;99.90
26081;DHT22;13991;51.174;4.438;2022-10-17T13:45:59;19.90;99.90
26081;DHT22;13991;51.174;4.438;2022-10-17T13:48:30;20.00;99.90
26081;DHT22;13991;51.174;4.438;2022-10-17T13:51:01;20.00;99.90
26081;DHT22;13991;51.174;4.438;2022-10-17T13:53:36;20.10;99.90
26081;DHT22;13991;51.174;4.438;2022-10-17T13:56:23;20.20;99.90
26081;DHT22;13991;51.174;4.438;2022-10-17T13:58:52;20.10;99.90
26081;DHT22;13991;51.174;4.438;2022-10-17T14:01:19;20.10;99.90
26081;DHT22;13991;51.174;4.438;2022-10-17T14:03:47;20.10;99.90
26081;DHT22;13991;51.174;4.438;2022-10-17T14:06:16;20.10;99.90
26081;DHT22;13991;51.174;4.438;2022-10-17T14:09:05;20.10;99.90
26081;DHT22;13991;51.174;4.438;2022-10-17T14:11:40;20.10;99.90
26081;DHT22;13991;51.174;4.438;2022-10-17T14:14:17;20.10;99.90
26081;DHT22;13991;51.174;4.438;2022-10-17T14:16:43;20.10;99.90
26081;DHT22;13991;51.174;4.438;2022-10-17T14:19:30;20.10;99.90
26081;DHT22;13991;51.174;4.438;2022-10-17T14:22:26;20.20;99.90
26081;DHT22;13991;51.174;4.438;2022-10-17T14:24:53;20.20;99.90
26081;DHT22;13991;51.174;4.438;2022-10-17T14:27:27;20.10;99.90
26081;DHT22;13991;51.174;4.438;2022-10-17T14:29:56;20.10;99.90
26081;DHT22;13991;51.174;4.438;2022-10-17T14:32:27;20.20;99.90
26081;DHT22;13991;51.174;4.438;2022-10-17T14:34:55;20.30;99.90
26081;DHT22;13991;51.174;4.438;2022-10-17T14:37:43;20.20;99.90
26081;DHT22;13991;51.174;4.438;2022-10-17T14:40:26;20.30;99.90
26081;DHT22;13991;51.174;4.438;2022-10-17T14:42:55;20.30;99.90
26081;DHT22;13991;51.174;4.438;2022-10-17T14:45:34;20.30;99.90
26081;DHT22;13991;51.174;4.438;2022-10-17T14:48:15;20.30;99.90
26081;DHT22;13991;51.174;4.438;2022-10-17T14:50:42;20.20;99.90
26081;DHT22;13991;51.174;4.438;2022-10-17T14:53:27;20.20;99.90
26081;DHT22;13991;51.174;4.438;2022-10-17T14:56:21;20.10;99.90
26081;DHT22;13991;51.174;4.438;2022-10-17T14:58:47;20.20;99.90
26081;DHT22;13991;51.174;4.438;2022-10-17T15:01:12;20.10;99.90
26081;DHT22;13991;51.174;4.438;2022-10-17T15:03:38;20.10;99.90
26081;DHT22;13991;51.174;4.438;2022-10-17T15:06:25;20.20;99.90
26081;DHT22;13991;51.174;4.438;2022-10-17T15:08:51;20.20;99.90
26081;DHT22;13991;51.174;4.438;2022-10-17T15:11:17;20.10;99.90
26081;DHT22;13991;51.174;4.438;2022-10-17T15:13:42;20.10;99.90
26081;DHT22;13991;51.174;4.438;2022-10-17T15:16:18;20.10;99.90
26081;DHT22;13991;51.174;4.438;2022-10-17T15:18:44;20.00;99.90
26081;DHT22;13991;51.174;4.438;2022-10-17T15:21:14;20.10;99.90
26081;DHT22;13991;51.174;4.438;2022-10-17T15:23:40;20.00;99.90
26081;DHT22;13991;51.174;4.438;2022-10-17T15:26:33;19.90;99.90
26081;DHT22;13991;51.174;4.438;2022-10-17T15:28:59;20.00;99.90
26081;DHT22;13991;51.174;4.438;2022-10-17T15:31:26;20.00;99.90
26081;DHT22;13991;51.174;4.438;2022-10-17T15:33:53;19.80;99.90
26081;DHT22;13991;51.174;4.438;2022-10-17T15:36:27;19.80;99.90
26081;DHT22;13991;51.174;4.438;2022-10-17T15:38:58;19.80;99.90
26081;DHT22;13991;51.174;4.438;2022-10-17T15:41:27;19.80;99.90
26081;DHT22;13991;51.174;4.438;2022-10-17T15:43:53;19.80;99.90
26081;DHT22;13991;51.174;4.438;2022-10-17T15:46:29;19.80;99.90
26081;DHT22;13991;51.174;4.438;2022-10-17T15:49:01;19.70;99.90
26081;DHT22;13991;51.174;4.438;2022-10-17T15:51:27;19.70;99.90
26081;DHT22;13991;51.174;4.438;2022-10-17T15:53:53;19.70;99.90
26081;DHT22;13991;51.174;4.438;2022-10-17T15:56:31;19.70;99.90
26081;DHT22;13991;51.174;4.438;2022-10-17T15:59:06;19.70;99.90
26081;DHT22;13991;51.174;4.438;2022-10-17T16:01:32;19.70;99.90
26081;DHT22;13991;51.174;4.438;2022-10-17T16:03:58;19.70;99.90
26081;DHT22;13991;51.174;4.438;2022-10-17T16:06:24;19.60;99.90
26081;DHT22;13991;51.174;4.438;2022-10-17T16:08:51;19.60;99.90
26081;DHT22;13991;51.174;4.438;2022-10-17T16:11:36;19.60;99.90
26081;DHT22;13991;51.174;4.438;2022-10-17T16:14:05;19.50;99.90
26081;DHT22;13991;51.174;4.438;2022-10-17T16:16:31;19.50;99.90
26081;DHT22;13991;51.174;4.438;2022-10-17T16:18:57;19.40;99.90
26081;DHT22;13991;51.174;4.438;2022-10-17T16:21:26;19.30;99.90
26081;DHT22;13991;51.174;4.438;2022-10-17T16:23:52;19.40;99.90
26081;DHT22;13991;51.174;4.438;2022-10-17T16:26:18;19.30;99.90
26081;DHT22;13991;51.174;4.438;2022-10-17T16:28:44;19.30;99.90
26081;DHT22;13991;51.174;4.438;2022-10-17T16:31:25;19.30;99.90
26081;DHT22;13991;51.174;4.438;2022-10-17T16:33:53;19.30;99.90
26081;DHT22;13991;51.174;4.438;2022-10-17T16:36:20;19.20;99.90
26081;DHT22;13991;51.174;4.438;2022-10-17T16:38:46;19.20;99.90
26081;DHT22;13991;51.174;4.438;2022-10-17T16:41:37;19.20;99.90
26081;DHT22;13991;51.174;4.438;2022-10-17T16:44:09;19.20;99.90
26081;DHT22;13991;51.174;4.438;2022-10-17T16:46:36;19.10;99.90
26081;DHT22;13991;51.174;4.438;2022-10-17T16:49:06;19.10;99.90
26081;DHT22;13991;51.174;4.438;2022-10-17T16:51:32;19.00;99.90
26081;DHT22;13991;51.174;4.438;2022-10-17T16:54:00;19.00;99.90
26081;DHT22;13991;51.174;4.438;2022-10-17T16:56:27;19.00;99.90
26081;DHT22;13991;51.174;4.438;2022-10-17T16:58:57;19.00;99.90
26081;DHT22;13991;51.174;4.438;2022-10-17T17:01:24;19.00;99.90
26081;DHT22;13991;51.174;4.438;2022-10-17T17:03:51;19.00;99.90
26081;DHT22;13991;51.174;4.438;2022-10-17T17:06:23;18.90;99.90
26081;DHT22;13991;51.174;4.438;2022-10-17T17:08:49;18.90;99.90
26081;DHT22;13991;51.174;4.438;2022-10-17T17:11:19;18.90;99.90
26081;DHT22;13991;51.174;4.438;2022-10-17T17:13:45;18.90;99.90
26081;DHT22;13991;51.174;4.438;2022-10-17T17:16:13;18.80;99.90
26081;DHT22;13991;51.174;4.438;2022-10-17T17:18:40;18.80;99.90
26081;DHT22;13991;51.174;4.438;2022-10-17T17:21:07;18.70;99.90
26081;DHT22;13991;51.174;4.438;2022-10-17T17:23:35;18.70;99.90
26081;DHT22;13991;51.174;4.438;2022-10-17T17:26:04;18.70;99.90
26081;DHT22;13991;51.174;4.438;2022-10-17T17:28:31;18.70;99.90
26081;DHT22;13991;51.174;4.438;2022-10-17T17:30:57;18.70;99.90
26081;DHT22;13991;51.174;4.438;2022-10-17T17:33:23;18.60;99.90
26081;DHT22;13991;51.174;4.438;2022-10-17T17:35:57;18.70;99.90
26081;DHT22;13991;51.174;4.438;2022-10-17T17:38:23;18.70;99.90
26081;DHT22;13991;51.174;4.438;2022-10-17T17:40:49;18.70;99.90
26081;DHT22;13991;51.174;4.438;2022-10-17T17:43:14;18.60;99.90
26081;DHT22;13991;51.174;4.438;2022-10-17T17:45:40;18.60;99.90
26081;DHT22;13991;51.174;4.438;2022-10-17T17:48:06;18.60;99.90